createdAt,value
2023-04-18T00:00:44.165Z,18.75
2023-04-18T00:03:31.422Z,19.25
2023-04-18T00:06:12.170Z,16.25
2023-04-18T00:08:59.253Z,17.73
2023-04-18T00:11:39.226Z,16.00
2023-04-18T00:14:33.204Z,16.38
2023-04-18T00:17:27.259Z,15.55
2023-04-18T00:20:22.175Z,15.20
2023-04-18T00:23:16.203Z,15.52
2023-04-18T00:26:03.192Z,16.13
2023-04-18T00:28:36.295Z,14.65
2023-04-18T00:31:23.321Z,16.30
2023-04-18T00:33:56.291Z,15.02
2023-04-18T00:36:43.198Z,16.08
2023-04-18T00:39:16.336Z,17.67
2023-04-18T00:42:03.208Z,18.35
2023-04-18T00:44:37.325Z,16.98
2023-04-18T00:47:24.222Z,16.23
2023-04-18T00:49:58.365Z,15.35
2023-04-18T00:52:45.214Z,14.90
2023-04-18T00:55:26.248Z,16.35
2023-04-18T00:58:13.209Z,16.00
2023-04-18T01:00:53.232Z,15.70
2023-04-18T01:03:47.298Z,17.67
2023-04-18T01:06:34.193Z,16.27
2023-04-18T01:09:07.344Z,15.38
2023-04-18T01:11:54.209Z,15.65
2023-04-18T01:14:27.305Z,16.02
2023-04-18T01:17:21.274Z,16.55
2023-04-18T01:20:16.204Z,15.88
2023-04-18T01:23:04.201Z,14.90
2023-04-18T01:25:37.391Z,15.98
2023-04-18T01:28:26.226Z,15.50
2023-04-18T01:30:59.475Z,15.50
2023-04-18T01:33:46.330Z,16.15
2023-04-18T01:36:19.331Z,15.23
2023-04-18T01:39:06.201Z,16.30
2023-04-18T01:41:46.222Z,14.32
2023-04-18T01:44:40.222Z,17.13
2023-04-18T01:47:27.242Z,16.38
2023-04-18T01:50:00.317Z,14.88
2023-04-18T01:52:47.240Z,15.32
2023-04-18T01:55:20.401Z,17.05
2023-04-18T01:58:07.208Z,16.33
2023-04-18T02:00:47.302Z,16.77
2023-04-18T02:03:41.444Z,16.42
2023-04-18T02:06:28.250Z,15.23
2023-04-18T02:09:08.237Z,15.50
2023-04-18T02:12:03.223Z,16.08
2023-04-18T02:14:50.252Z,16.42
2023-04-18T02:17:24.394Z,17.23
2023-04-18T02:20:11.248Z,17.45
2023-04-18T02:22:51.230Z,16.00
2023-04-18T02:25:45.255Z,16.38
2023-04-18T02:28:39.333Z,16.65
2023-04-18T02:31:33.262Z,15.85
2023-04-18T02:34:20.260Z,16.42
2023-04-18T02:37:00.240Z,16.58
2023-04-18T02:39:47.258Z,15.73
2023-04-18T02:42:27.246Z,15.98
2023-04-18T02:45:15.271Z,17.13
2023-04-18T02:47:55.124Z,16.50
2023-04-18T02:50:43.261Z,16.40
2023-04-18T02:53:23.254Z,16.13
2023-04-18T02:56:35.245Z,16.92
2023-04-18T02:59:22.288Z,15.77
2023-04-18T03:01:55.362Z,15.60
2023-04-18T03:04:35.360Z,16.33
2023-04-18T03:07:15.247Z,16.00
2023-04-18T03:09:55.241Z,15.25
2023-04-18T03:12:49.256Z,16.73
2023-04-18T03:15:38.288Z,18.33
2023-04-18T03:18:12.506Z,18.70
2023-04-18T03:20:59.259Z,19.00
2023-04-18T03:23:39.247Z,17.23
2023-04-18T03:26:33.254Z,18.35
2023-04-18T03:29:20.255Z,17.95
2023-04-18T03:31:53.369Z,18.27
2023-04-18T03:34:40.313Z,17.83
2023-04-18T03:37:13.367Z,19.20
2023-04-18T03:40:00.260Z,18.25
2023-04-18T03:42:33.348Z,17.88
2023-04-18T03:45:20.289Z,18.55
2023-04-18T03:47:53.549Z,17.83
2023-04-18T03:50:40.293Z,17.75
2023-04-18T03:53:14.422Z,18.67
2023-04-18T03:56:01.257Z,17.10
2023-04-18T03:58:41.277Z,16.80
2023-04-18T04:01:35.294Z,17.95
2023-04-18T04:04:22.362Z,16.25
2023-04-18T04:06:55.941Z,17.23
2023-04-18T04:09:42.299Z,18.63
2023-04-18T04:12:15.488Z,15.93
2023-04-18T04:15:02.286Z,17.40
2023-04-18T04:17:57.366Z,17.33
2023-04-18T04:20:44.302Z,16.88
2023-04-18T04:23:17.442Z,17.65
2023-04-18T04:26:05.295Z,19.02
2023-04-18T04:28:39.995Z,19.67
2023-04-18T04:31:19.327Z,17.33
2023-04-18T04:34:06.289Z,16.65
2023-04-18T04:36:53.295Z,19.05
2023-04-18T04:39:26.382Z,17.63
2023-04-18T04:42:13.292Z,17.38
2023-04-18T04:44:53.310Z,17.85
2023-04-18T04:47:40.359Z,17.23
2023-04-18T04:50:22.304Z,17.42
2023-04-18T04:53:16.288Z,16.50
2023-04-18T04:56:04.313Z,16.77
2023-04-18T04:58:37.389Z,16.52
2023-04-18T05:01:24.378Z,16.45
2023-04-18T05:03:57.484Z,16.23
2023-04-18T05:06:44.297Z,17.42
2023-04-18T05:09:17.410Z,18.13
2023-04-18T05:12:04.319Z,16.55
2023-04-18T05:14:44.300Z,15.70
2023-04-18T05:17:31.323Z,17.88
2023-04-18T05:20:11.294Z,16.13
2023-04-18T05:23:05.317Z,17.42
2023-04-18T05:25:52.305Z,16.90
2023-04-18T05:28:32.393Z,16.85
2023-04-18T05:31:26.322Z,18.23
2023-04-18T05:34:20.323Z,18.02
2023-04-18T05:37:07.335Z,17.55
2023-04-18T05:39:40.486Z,17.75
2023-04-18T05:42:27.337Z,19.10
2023-04-18T05:45:00.506Z,19.17
2023-04-18T05:47:47.393Z,18.13
2023-04-18T05:50:27.334Z,17.05
2023-04-18T05:53:21.326Z,18.77
2023-04-18T05:56:08.318Z,19.05
2023-04-18T05:58:41.418Z,17.38
2023-04-18T06:01:28.340Z,17.35
2023-04-18T06:04:01.819Z,16.17
2023-04-18T06:06:48.310Z,18.27
2023-04-18T06:09:21.420Z,19.27
2023-04-18T06:12:08.328Z,17.92
2023-04-18T06:14:48.355Z,16.73
2023-04-18T06:17:35.353Z,17.85
2023-04-18T06:20:15.685Z,18.30
2023-04-18T06:23:02.337Z,19.55
2023-04-18T06:25:42.339Z,22.27
2023-04-18T06:28:36.335Z,21.45
2023-04-18T06:31:30.381Z,21.77
2023-04-18T06:34:24.340Z,19.75
2023-04-18T06:37:11.367Z,20.13
2023-04-18T06:39:44.475Z,19.55
2023-04-18T06:42:31.375Z,19.60
2023-04-18T06:45:05.998Z,18.73
2023-04-18T06:47:52.388Z,19.27
2023-04-18T06:50:32.350Z,18.80
2023-04-18T06:53:19.360Z,18.90
2023-04-18T06:55:52.583Z,19.90
2023-04-18T06:58:39.340Z,21.50
2023-04-18T07:01:19.391Z,20.20
2023-04-18T07:04:13.614Z,21.25
2023-04-18T07:07:08.361Z,20.35
2023-04-18T07:09:59.342Z,20.92
2023-04-18T07:12:39.397Z,20.35
2023-04-18T07:15:26.368Z,18.77
2023-04-18T07:17:59.548Z,17.50
2023-04-18T07:20:46.380Z,18.52
2023-04-18T07:23:26.355Z,18.00
2023-04-18T07:26:13.388Z,17.05
2023-04-18T07:28:53.353Z,18.42
2023-04-18T07:31:41.366Z,17.88
2023-04-18T07:34:14.934Z,17.85
2023-04-18T07:37:05.360Z,17.23
2023-04-18T07:39:38.549Z,17.05
2023-04-18T07:42:25.386Z,16.70
2023-04-18T07:45:04.558Z,16.70
2023-04-18T07:47:51.461Z,16.48
2023-04-18T07:50:24.868Z,15.85
2023-04-18T07:53:11.423Z,16.58
2023-04-18T07:55:44.490Z,16.23
2023-04-18T07:58:31.396Z,16.52
2023-04-18T08:01:04.540Z,17.02
2023-04-18T08:03:53.585Z,17.10
2023-04-18T08:06:27.512Z,16.60
2023-04-18T08:09:15.734Z,15.40
2023-04-18T08:11:49.451Z,13.77
2023-04-18T08:14:36.390Z,15.13
2023-04-18T08:17:09.494Z,15.43
2023-04-18T08:19:56.388Z,15.18
2023-04-18T08:22:29.628Z,14.25
2023-04-18T08:25:16.416Z,14.93
2023-04-18T08:27:57.385Z,13.23
2023-04-18T08:30:55.420Z,15.77
2023-04-18T08:33:42.444Z,15.05
2023-04-18T08:36:23.388Z,14.27
2023-04-18T08:39:10.455Z,12.45
2023-04-18T08:41:51.393Z,13.73
2023-04-18T08:44:45.407Z,12.68
2023-04-18T08:47:38.700Z,12.43
2023-04-18T08:50:12.819Z,12.38
2023-04-18T08:53:01.521Z,12.63
2023-04-18T08:55:41.393Z,13.65
2023-04-18T08:58:38.429Z,14.05
2023-04-18T09:01:32.495Z,15.60
2023-04-18T09:04:33.440Z,14.98
2023-04-18T09:07:07.558Z,13.57
2023-04-18T09:09:55.469Z,13.30
2023-04-18T09:12:32.614Z,12.75
2023-04-18T09:15:22.411Z,11.63
2023-04-18T09:17:58.059Z,11.65
2023-04-18T09:20:49.508Z,12.90
2023-04-18T09:23:37.436Z,12.07
2023-04-18T09:26:47.434Z,11.70
2023-04-18T09:29:56.485Z,11.15
2023-04-18T09:32:42.438Z,12.48
2023-04-18T09:35:38.510Z,11.65
2023-04-18T09:38:25.431Z,13.00
2023-04-18T09:41:20.759Z,12.52
2023-04-18T09:44:18.770Z,11.65
2023-04-18T09:46:58.441Z,12.23
2023-04-18T09:49:31.534Z,12.50
2023-04-18T09:52:18.427Z,12.60
2023-04-18T09:54:54.556Z,11.98
2023-04-18T09:57:43.448Z,12.27
2023-04-18T10:00:23.888Z,12.60
2023-04-18T10:03:16.519Z,10.63
2023-04-18T10:05:50.579Z,13.02
2023-04-18T10:08:38.506Z,12.85
2023-04-18T10:11:12.533Z,11.57
2023-04-18T10:14:04.432Z,12.13
2023-04-18T10:16:39.014Z,11.77
2023-04-18T10:19:33.514Z,11.20
2023-04-18T10:22:15.443Z,13.25
2023-04-18T10:25:09.443Z,13.93
2023-04-18T10:28:04.460Z,11.85
2023-04-18T10:30:51.503Z,11.48
2023-04-18T10:33:33.950Z,11.77
2023-04-18T10:36:27.458Z,11.27
2023-04-18T10:39:05.888Z,11.30
2023-04-18T10:41:56.486Z,11.95
2023-04-18T10:44:36.464Z,11.18
2023-04-18T10:47:23.580Z,11.65
2023-04-18T10:50:08.483Z,11.25
2023-04-18T10:53:02.634Z,11.23
2023-04-18T10:55:57.585Z,13.43
2023-04-18T10:58:30.721Z,11.65
2023-04-18T11:01:20.547Z,12.38
2023-04-18T11:03:53.735Z,12.52
2023-04-18T11:06:40.479Z,15.57
2023-04-18T11:09:17.656Z,12.68
2023-04-18T11:12:12.511Z,12.18
2023-04-18T11:15:04.472Z,13.15
2023-04-18T11:17:58.552Z,12.77
2023-04-18T11:20:47.510Z,12.40
2023-04-18T11:23:25.626Z,12.57
2023-04-18T11:26:14.489Z,12.20
2023-04-18T11:28:48.598Z,11.55
2023-04-18T11:31:35.612Z,11.77
2023-04-18T11:34:08.592Z,11.77
2023-04-18T11:36:57.494Z,12.05
2023-04-18T11:39:38.498Z,11.02
2023-04-18T11:42:32.501Z,11.55
2023-04-18T11:45:20.485Z,12.50
2023-04-18T11:47:53.655Z,11.95
2023-04-18T11:50:43.496Z,13.65
2023-04-18T11:53:23.521Z,12.98
2023-04-18T11:56:18.530Z,13.02
2023-04-18T11:59:05.507Z,12.23
2023-04-18T12:01:38.597Z,13.90
2023-04-18T12:04:25.693Z,13.45
2023-04-18T12:07:00.943Z,14.15
2023-04-18T12:09:47.508Z,11.77
2023-04-18T12:12:32.518Z,12.20
2023-04-18T12:15:21.578Z,13.55
2023-04-18T12:18:03.588Z,12.00
2023-04-18T12:21:05.519Z,11.70
2023-04-18T12:23:59.501Z,11.68
2023-04-18T12:26:52.532Z,12.52
2023-04-18T12:29:25.753Z,13.82
2023-04-18T12:32:12.526Z,13.43
2023-04-18T12:34:45.645Z,13.57
2023-04-18T12:37:32.533Z,12.13
2023-04-18T12:40:07.108Z,12.88
2023-04-18T12:42:54.549Z,13.00
2023-04-18T12:45:28.706Z,11.68
2023-04-18T12:48:15.524Z,12.75
2023-04-18T12:50:48.735Z,12.80
2023-04-18T12:53:35.527Z,13.50
2023-04-18T12:56:15.531Z,13.10
2023-04-18T12:59:02.624Z,13.32
2023-04-18T13:01:35.834Z,13.13
2023-04-18T13:04:22.754Z,13.45
2023-04-18T13:06:56.948Z,12.95
2023-04-18T13:09:43.768Z,12.32
2023-04-18T13:12:17.768Z,11.93
2023-04-18T13:15:04.638Z,11.75
2023-04-18T13:17:40.150Z,11.32
2023-04-18T13:20:26.574Z,11.32
2023-04-18T13:22:59.657Z,11.07
2023-04-18T13:25:46.577Z,11.40
2023-04-18T13:28:19.727Z,11.57
2023-04-18T13:31:06.638Z,12.63
2023-04-18T13:33:46.556Z,11.57
2023-04-18T13:36:41.605Z,11.70
2023-04-18T13:39:29.642Z,10.75
2023-04-18T13:42:03.372Z,11.38
2023-04-18T13:44:50.555Z,12.02
2023-04-18T13:47:23.657Z,11.70
2023-04-18T13:50:10.558Z,12.30
2023-04-18T13:52:50.574Z,12.10
2023-04-18T13:55:37.570Z,12.82
2023-04-18T13:58:10.770Z,11.85
2023-04-18T14:00:57.563Z,13.23
2023-04-18T14:03:30.886Z,13.10
2023-04-18T14:06:17.560Z,12.35
2023-04-18T14:08:51.323Z,10.85
2023-04-18T14:11:37.571Z,11.75
2023-04-18T14:14:17.590Z,11.80
2023-04-18T14:17:11.575Z,12.27
2023-04-18T14:20:05.562Z,12.40
2023-04-18T14:23:00.567Z,12.02
2023-04-18T14:25:47.588Z,11.70
2023-04-18T14:28:23.764Z,11.85
2023-04-18T14:31:12.614Z,12.60
2023-04-18T14:33:46.749Z,12.80
2023-04-18T14:36:33.599Z,14.57
2023-04-18T14:39:06.992Z,13.57
2023-04-18T14:41:53.602Z,12.55
2023-04-18T14:44:27.719Z,12.82
2023-04-18T14:47:14.567Z,13.15
2023-04-18T14:49:54.642Z,13.35
2023-04-18T14:52:42.604Z,12.32
2023-04-18T14:55:23.613Z,12.13
2023-04-18T14:58:10.588Z,14.00
2023-04-18T15:00:43.727Z,12.07
2023-04-18T15:03:30.955Z,13.27
2023-04-18T15:06:11.590Z,13.82
2023-04-18T15:08:58.612Z,13.57
2023-04-18T15:11:38.656Z,13.05
2023-04-18T15:14:32.969Z,13.85
2023-04-18T15:17:19.642Z,12.52
2023-04-18T15:20:13.612Z,13.02
2023-04-18T15:23:00.616Z,12.48
2023-04-18T15:25:41.621Z,14.25
2023-04-18T15:28:28.604Z,14.13
2023-04-18T15:31:01.716Z,14.43
2023-04-18T15:33:48.630Z,13.23
2023-04-18T15:36:28.611Z,12.88
2023-04-18T15:39:24.604Z,12.80
2023-04-18T15:42:12.649Z,13.75
2023-04-18T15:44:52.600Z,13.25
2023-04-18T15:47:48.621Z,12.00
2023-04-18T15:50:42.698Z,12.80
2023-04-18T15:53:36.645Z,12.98
2023-04-18T15:56:33.068Z,13.45
2023-04-18T15:59:20.693Z,13.30
2023-04-18T16:01:53.832Z,14.40
2023-04-18T16:04:40.676Z,13.50
2023-04-18T16:07:20.666Z,13.23
2023-04-18T16:10:16.657Z,12.75
2023-04-18T16:13:05.626Z,14.43
2023-04-18T16:15:42.786Z,13.57
2023-04-18T16:18:36.650Z,13.23
2023-04-18T16:21:24.634Z,13.18
2023-04-18T16:24:04.619Z,12.85
2023-04-18T16:26:59.632Z,12.88
2023-04-18T16:29:46.631Z,12.05
2023-04-18T16:32:26.678Z,13.90
2023-04-18T16:35:21.623Z,12.95
2023-04-18T16:38:08.648Z,14.27
2023-04-18T16:40:41.740Z,14.23
2023-04-18T16:43:29.626Z,12.95
2023-04-18T16:46:03.801Z,12.77
2023-04-18T16:48:52.512Z,12.98
2023-04-18T16:51:32.702Z,13.05
2023-04-18T16:54:19.874Z,12.80
2023-04-18T16:56:59.641Z,12.43
2023-04-18T16:59:53.683Z,12.25
2023-04-18T17:02:40.681Z,12.43
2023-04-18T17:05:14.828Z,12.68
2023-04-18T17:08:02.663Z,14.77
2023-04-18T17:10:43.655Z,12.57
2023-04-18T17:13:33.685Z,13.38
2023-04-18T17:16:06.805Z,12.50
2023-04-18T17:19:00.697Z,12.68
2023-04-18T17:21:47.644Z,11.48
2023-04-18T17:24:22.490Z,13.00
2023-04-18T17:27:09.694Z,13.30
2023-04-18T17:29:49.697Z,12.25
2023-04-18T17:32:43.700Z,13.95
2023-04-18T17:35:30.720Z,13.18
2023-04-18T17:38:03.918Z,13.15
2023-04-18T17:40:50.651Z,13.38
2023-04-18T17:43:23.776Z,14.05
2023-04-18T17:46:10.759Z,15.02
2023-04-18T17:48:50.666Z,14.23
2023-04-18T17:51:37.723Z,14.43
2023-04-18T17:54:11.176Z,14.60
2023-04-18T17:56:57.705Z,14.63
2023-04-18T17:59:30.785Z,14.45
2023-04-18T18:02:18.774Z,15.30
2023-04-18T18:04:51.848Z,15.25
2023-04-18T18:07:41.699Z,16.70
2023-04-18T18:10:29.687Z,16.15
2023-04-18T18:13:23.671Z,15.60
2023-04-18T18:16:10.735Z,17.17
2023-04-18T18:18:43.797Z,15.13
2023-04-18T18:21:30.697Z,16.40
2023-04-18T18:24:10.698Z,16.00
2023-04-18T18:26:57.716Z,15.48
2023-04-18T18:29:37.697Z,15.77
2023-04-18T18:32:24.769Z,14.77
2023-04-18T18:35:04.709Z,14.82
2023-04-18T18:37:51.701Z,14.90
2023-04-18T18:40:31.716Z,14.40
2023-04-18T18:43:19.725Z,15.75
2023-04-18T18:45:59.770Z,15.63
2023-04-18T18:48:54.731Z,16.48
2023-04-18T18:51:42.882Z,15.95
2023-04-18T18:54:22.693Z,15.10
2023-04-18T18:57:09.731Z,15.82
2023-04-18T18:59:43.465Z,17.52
2023-04-18T19:02:29.804Z,16.52
2023-04-18T19:05:09.732Z,17.25
2023-04-18T19:07:57.699Z,16.73
2023-04-18T19:10:37.716Z,17.92
2023-04-18T19:13:35.716Z,17.52
2023-04-18T19:16:22.735Z,18.23
2023-04-18T19:18:55.828Z,18.55
2023-04-18T19:21:42.730Z,18.00
2023-04-18T19:24:22.729Z,17.27
2023-04-18T19:27:16.696Z,19.55
2023-04-18T19:30:03.762Z,19.58
2023-04-18T19:32:38.068Z,19.05
2023-04-18T19:35:24.745Z,18.63
2023-04-18T19:38:01.695Z,18.98
2023-04-18T19:40:48.821Z,19.25
2023-04-18T19:43:28.728Z,18.98
2023-04-18T19:46:15.807Z,18.13
2023-04-18T19:48:50.534Z,17.95
2023-04-18T19:51:37.724Z,16.75
2023-04-18T19:54:19.214Z,17.52
2023-04-18T19:57:14.821Z,19.30
2023-04-18T20:00:01.719Z,18.63
2023-04-18T20:02:35.021Z,19.63
2023-04-18T20:05:21.922Z,16.95
2023-04-18T20:08:03.061Z,19.70
2023-04-18T20:10:49.947Z,20.13
2023-04-18T20:13:23.134Z,18.15
2023-04-18T20:16:15.767Z,21.52
2023-04-18T20:18:56.784Z,19.70
2023-04-18T20:21:50.742Z,19.85
2023-04-18T20:24:38.750Z,27.35
2023-04-18T20:27:18.813Z,22.73
2023-04-18T20:30:12.749Z,19.42
2023-04-18T20:32:59.791Z,20.60
2023-04-18T20:35:40.755Z,23.27
2023-04-18T20:38:35.964Z,28.75
2023-04-18T20:41:27.845Z,35.83
2023-04-18T20:44:05.305Z,28.92
2023-04-18T20:46:51.829Z,21.98
2023-04-18T20:49:26.230Z,22.08
2023-04-18T20:52:18.756Z,20.92
2023-04-18T20:54:51.841Z,21.60
2023-04-18T20:57:38.770Z,19.67
2023-04-18T21:00:23.785Z,20.35
2023-04-18T21:03:11.060Z,19.23
2023-04-18T21:05:45.205Z,21.20
2023-04-18T21:08:31.998Z,20.73
2023-04-18T21:11:06.039Z,18.30
2023-04-18T21:13:52.822Z,20.15
2023-04-18T21:16:32.870Z,19.75
2023-04-18T21:19:26.877Z,20.30
2023-04-18T21:22:14.049Z,19.13
2023-04-18T21:24:55.182Z,18.70
2023-04-18T21:27:48.908Z,18.50
2023-04-18T21:30:42.832Z,20.00
2023-04-18T21:33:30.861Z,18.83
2023-04-18T21:36:04.123Z,19.13
2023-04-18T21:38:50.942Z,19.92
2023-04-18T21:41:25.370Z,19.42
2023-04-18T21:44:11.877Z,19.27
2023-04-18T21:46:45.279Z,18.52
2023-04-18T21:49:31.929Z,18.83
2023-04-18T21:52:08.301Z,20.30
2023-04-18T21:54:54.775Z,18.85
2023-04-18T21:57:35.153Z,19.30
2023-04-18T22:00:28.801Z,19.38
2023-04-18T22:03:15.924Z,19.52
2023-04-18T22:05:58.845Z,18.80
2023-04-18T22:08:52.799Z,19.58
2023-04-18T22:11:39.828Z,18.60
2023-04-18T22:14:14.682Z,20.73
2023-04-18T22:17:01.824Z,19.10
2023-04-18T22:19:35.746Z,20.17
2023-04-18T22:22:22.814Z,20.83
2023-04-18T22:25:02.844Z,21.67
2023-04-18T22:27:58.783Z,21.00
2023-04-18T22:30:45.829Z,21.10
2023-04-18T22:33:25.804Z,20.80
2023-04-18T22:36:12.788Z,21.05
2023-04-18T22:38:52.796Z,19.77
2023-04-18T22:41:46.799Z,21.27
2023-04-18T22:44:40.814Z,22.05
2023-04-18T22:47:27.817Z,21.27
2023-04-18T22:50:00.912Z,21.45
2023-04-18T22:52:47.807Z,20.67
2023-04-18T22:55:27.852Z,21.08
2023-04-18T22:58:22.808Z,21.05
2023-04-18T23:01:16.832Z,21.70
2023-04-18T23:04:04.070Z,20.08
2023-04-18T23:06:38.823Z,20.90
2023-04-18T23:09:25.808Z,21.05
2023-04-18T23:11:58.923Z,21.25
2023-04-18T23:14:47.817Z,23.63
2023-04-18T23:17:20.979Z,23.10
2023-04-18T23:20:07.815Z,22.88
2023-04-18T23:22:40.969Z,22.65
2023-04-18T23:25:27.817Z,24.67
2023-04-18T23:28:00.927Z,23.25
2023-04-18T23:30:47.878Z,23.88
2023-04-18T23:33:21.094Z,24.38
2023-04-18T23:36:07.864Z,23.05
2023-04-18T23:38:47.823Z,23.33
2023-04-18T23:41:41.865Z,26.10
2023-04-18T23:44:28.826Z,25.60
2023-04-18T23:47:02.031Z,24.70
2023-04-18T23:49:48.888Z,24.75
2023-04-18T23:52:21.928Z,24.88
2023-04-18T23:55:08.874Z,24.85
2023-04-18T23:57:41.915Z,27.42
